createdAt,value
2019-01-19T00:01:17.036Z,-2.40
2019-01-19T00:04:08.470Z,-2.30
2019-01-19T00:07:02.138Z,-2.40
2019-01-19T00:09:38.604Z,-2.40
2019-01-19T00:12:15.109Z,-2.40
2019-01-19T00:14:48.774Z,-2.40
2019-01-19T00:17:44.637Z,-2.30
2019-01-19T00:20:36.836Z,-2.40
2019-01-19T00:23:25.046Z,-2.40
2019-01-19T00:26:19.253Z,-2.30
2019-01-19T00:29:15.543Z,-2.30
2019-01-19T00:32:04.431Z,-2.30
2019-01-19T00:35:00.651Z,-2.40
2019-01-19T00:37:37.235Z,-2.40
2019-01-19T00:40:30.347Z,-2.50
2019-01-19T00:43:04.927Z,-2.50
2019-01-19T00:45:44.372Z,-2.40
2019-01-19T00:48:24.018Z,-2.40
2019-01-19T00:51:07.544Z,-2.50
2019-01-19T00:53:50.281Z,-2.50
2019-01-19T00:56:29.807Z,-2.50
2019-01-19T00:59:06.296Z,-2.50
2019-01-19T01:01:49.388Z,-2.50
2019-01-19T01:04:25.950Z,-2.60
2019-01-19T01:07:05.309Z,-2.60
2019-01-19T01:10:00.366Z,-2.60
2019-01-19T01:12:39.857Z,-2.70
2019-01-19T01:15:22.550Z,-2.60
2019-01-19T01:17:58.943Z,-2.60
2019-01-19T01:20:53.499Z,-2.60
2019-01-19T01:23:38.452Z,-2.50
2019-01-19T01:26:14.935Z,-2.60
2019-01-19T01:28:56.621Z,-2.50
2019-01-19T01:31:33.140Z,-2.30
2019-01-19T01:34:21.078Z,-2.30
2019-01-19T01:36:57.578Z,-2.40
2019-01-19T01:39:45.913Z,-2.50
2019-01-19T01:42:25.267Z,-2.50
2019-01-19T01:45:13.469Z,-2.50
2019-01-19T01:47:52.919Z,-2.50
2019-01-19T01:50:35.275Z,-2.50
2019-01-19T01:53:44.862Z,-2.50
2019-01-19T01:56:18.084Z,-2.50
2019-01-19T01:58:54.594Z,-2.50
2019-01-19T02:01:37.958Z,-2.50
2019-01-19T02:04:29.329Z,-2.60
2019-01-19T02:07:17.211Z,-2.60
2019-01-19T02:10:05.819Z,-2.70
2019-01-19T02:12:51.114Z,-2.80
2019-01-19T02:15:33.659Z,-2.80
2019-01-19T02:18:25.111Z,-2.80
2019-01-19T02:21:33.524Z,-3.00
2019-01-19T02:24:22.319Z,-3.10
2019-01-19T02:27:02.436Z,-3.10
2019-01-19T02:29:55.065Z,-3.10
2019-01-19T02:32:31.539Z,-3.10
2019-01-19T02:35:08.039Z,-3.20
2019-01-19T02:37:50.202Z,-3.20
2019-01-19T02:40:29.381Z,-3.20
2019-01-19T02:43:22.546Z,-3.20
2019-01-19T02:46:24.641Z,-3.20
2019-01-19T02:49:21.863Z,-3.30
2019-01-19T02:51:58.629Z,-3.20
2019-01-19T02:54:41.024Z,-3.10
2019-01-19T02:57:39.653Z,-3.10
2019-01-19T03:00:21.700Z,-3.00
2019-01-19T03:03:07.109Z,-3.00
2019-01-19T03:05:46.285Z,-2.90
2019-01-19T03:08:40.837Z,-2.80
2019-01-19T03:11:17.316Z,-2.80
2019-01-19T03:13:59.608Z,-2.70
2019-01-19T03:16:47.555Z,-2.60
2019-01-19T03:19:24.056Z,-2.70
2019-01-19T03:22:33.564Z,-2.60
2019-01-19T03:25:24.972Z,-2.70
2019-01-19T03:28:07.201Z,-2.50
2019-01-19T03:30:49.658Z,-2.60
2019-01-19T03:33:28.863Z,-2.50
2019-01-19T03:36:20.273Z,-2.40
2019-01-19T03:38:56.779Z,-2.30
2019-01-19T03:41:39.760Z,-2.20
2019-01-19T03:44:22.314Z,-2.20
2019-01-19T03:47:07.444Z,-2.30
2019-01-19T03:50:06.501Z,-2.30
2019-01-19T03:52:43.016Z,-2.40
2019-01-19T03:55:31.191Z,-2.40
2019-01-19T03:58:16.389Z,-2.40
2019-01-19T04:01:04.899Z,-2.40
2019-01-19T04:04:02.062Z,-2.40
2019-01-19T04:06:47.163Z,-2.50
2019-01-19T04:09:32.623Z,-2.50
2019-01-19T04:12:20.765Z,-2.50
2019-01-19T04:15:03.238Z,-2.40
2019-01-19T04:17:54.560Z,-2.40
2019-01-19T04:20:28.766Z,-2.40
2019-01-19T04:23:02.922Z,-2.40
2019-01-19T04:25:45.745Z,-2.50
2019-01-19T04:28:19.240Z,-2.50
2019-01-19T04:30:52.503Z,-2.60
2019-01-19T04:33:25.732Z,-2.80
2019-01-19T04:35:59.849Z,-3.00
2019-01-19T04:38:34.544Z,-3.00
2019-01-19T04:41:07.786Z,-3.20
2019-01-19T04:43:41.006Z,-3.30
2019-01-19T04:46:14.272Z,-3.40
2019-01-19T04:48:47.773Z,-3.50
2019-01-19T04:51:21.014Z,-3.50
2019-01-19T04:53:54.252Z,-3.70
2019-01-19T04:56:27.499Z,-3.80
2019-01-19T04:59:00.706Z,-3.90
2019-01-19T05:01:33.958Z,-4.00
2019-01-19T05:04:07.201Z,-4.10
2019-01-19T05:06:40.518Z,-4.10
2019-01-19T05:09:13.747Z,-4.10
2019-01-19T05:11:47.007Z,-4.20
2019-01-19T05:14:20.230Z,-4.10
2019-01-19T05:16:54.271Z,-4.20
2019-01-19T05:19:27.530Z,-4.20
2019-01-19T05:22:00.775Z,-4.20
2019-01-19T05:24:34.001Z,-4.30
2019-01-19T05:27:07.241Z,-4.30
2019-01-19T05:29:40.463Z,-4.30
2019-01-19T05:32:14.572Z,-4.30
2019-01-19T05:34:47.881Z,-4.30
2019-01-19T05:37:21.131Z,-4.30
2019-01-19T05:39:54.354Z,-4.40
2019-01-19T05:42:28.036Z,-4.30
2019-01-19T05:45:01.272Z,-4.20
2019-01-19T05:47:34.536Z,-4.30
2019-01-19T05:50:15.955Z,-4.20
2019-01-19T05:52:49.187Z,-4.10
2019-01-19T05:55:22.412Z,-4.00
2019-01-19T05:57:55.650Z,-3.90
2019-01-19T06:00:30.514Z,-3.90
2019-01-19T06:03:05.049Z,-3.90
2019-01-19T06:05:40.090Z,-3.80
2019-01-19T06:08:13.383Z,-3.80
2019-01-19T06:10:46.603Z,-3.80
2019-01-19T06:13:19.856Z,-3.70
2019-01-19T06:15:53.090Z,-3.80
2019-01-19T06:18:26.419Z,-3.70
2019-01-19T06:20:59.646Z,-3.70
2019-01-19T06:23:32.884Z,-3.60
2019-01-19T06:26:06.120Z,-3.60
2019-01-19T06:28:39.363Z,-3.60
2019-01-19T06:31:12.934Z,-3.70
2019-01-19T06:33:46.209Z,-3.50
2019-01-19T06:36:19.443Z,-3.50
2019-01-19T06:38:52.701Z,-3.40
2019-01-19T06:41:25.943Z,-3.40
2019-01-19T06:43:59.197Z,-3.30
2019-01-19T06:46:32.402Z,-3.30
2019-01-19T06:49:05.676Z,-3.20
2019-01-19T06:51:38.894Z,-3.20
2019-01-19T06:54:12.388Z,-3.10
2019-01-19T06:56:45.596Z,-3.00
2019-01-19T06:59:18.873Z,-3.00
2019-01-19T07:01:52.137Z,-3.10
2019-01-19T07:04:25.389Z,-3.00
2019-01-19T07:07:02.889Z,-3.00
2019-01-19T07:09:33.608Z,-2.90
2019-01-19T07:12:07.047Z,-2.90
2019-01-19T07:14:40.319Z,-2.90
2019-01-19T07:17:13.691Z,-2.90
2019-01-19T07:19:46.936Z,-3.00
2019-01-19T07:22:20.172Z,-3.00
2019-01-19T07:24:53.502Z,-3.00
2019-01-19T07:27:26.775Z,-3.00
2019-01-19T07:30:00.183Z,-2.90
2019-01-19T07:32:33.381Z,-2.90
2019-01-19T07:35:06.719Z,-2.90
2019-01-19T07:37:39.965Z,-2.90
2019-01-19T07:40:15.931Z,-3.00
2019-01-19T07:42:50.780Z,-3.00
2019-01-19T07:45:24.044Z,-3.00
2019-01-19T07:47:57.278Z,-3.00
2019-01-19T07:50:30.538Z,-3.10
2019-01-19T07:53:03.763Z,-3.00
2019-01-19T07:55:37.012Z,-3.00
2019-01-19T07:58:11.150Z,-2.90
2019-01-19T08:00:44.442Z,-2.80
2019-01-19T08:03:17.671Z,-2.80
2019-01-19T08:05:51.005Z,-2.70
2019-01-19T08:08:24.242Z,-2.70
2019-01-19T08:10:57.910Z,-2.70
2019-01-19T08:13:31.155Z,-2.60
2019-01-19T08:16:04.416Z,-2.50
2019-01-19T08:18:37.621Z,-2.40
2019-01-19T08:21:10.955Z,-2.40
2019-01-19T08:23:44.188Z,-2.30
2019-01-19T08:26:17.460Z,-2.20
2019-01-19T08:28:50.719Z,-2.10
2019-01-19T08:31:23.969Z,-2.10
2019-01-19T08:33:57.209Z,-2.00
2019-01-19T08:36:30.497Z,-2.00
2019-01-19T08:39:05.761Z,-1.90
2019-01-19T08:41:39.033Z,-1.90
2019-01-19T08:44:12.547Z,-1.80
2019-01-19T08:46:45.882Z,-1.80
2019-01-19T08:49:19.142Z,-1.70
2019-01-19T08:51:52.387Z,-1.70
2019-01-19T08:54:25.630Z,-1.80
2019-01-19T08:56:58.868Z,-1.70
2019-01-19T08:59:32.103Z,-1.70
2019-01-19T09:02:05.366Z,-1.80
2019-01-19T09:04:38.613Z,-1.80
2019-01-19T09:07:11.944Z,-1.80
2019-01-19T09:09:45.276Z,-1.70
2019-01-19T09:12:18.533Z,-1.80
2019-01-19T09:14:51.764Z,-1.70
2019-01-19T09:17:25.245Z,-1.60
2019-01-19T09:19:58.475Z,-1.60
2019-01-19T09:22:32.078Z,-1.60
2019-01-19T09:25:08.225Z,-1.50
2019-01-19T09:27:41.489Z,-1.50
2019-01-19T09:30:17.548Z,-1.50
2019-01-19T09:32:50.869Z,-1.50
2019-01-19T09:35:24.103Z,-1.40
2019-01-19T09:37:57.355Z,-1.40
2019-01-19T09:40:30.679Z,-1.40
2019-01-19T09:43:03.927Z,-1.40
2019-01-19T09:45:37.350Z,-1.40
2019-01-19T09:48:10.619Z,-1.40
2019-01-19T09:50:43.845Z,-1.40
2019-01-19T09:53:17.107Z,-1.40
2019-01-19T09:55:50.327Z,-1.30
2019-01-19T09:58:23.571Z,-1.30
2019-01-19T10:00:57.132Z,-1.30
2019-01-19T10:03:30.392Z,-1.20
2019-01-19T10:06:03.618Z,-1.10
2019-01-19T10:08:37.004Z,-1.00
2019-01-19T10:11:10.772Z,-0.90
2019-01-19T10:13:44.207Z,-0.80
2019-01-19T10:16:17.681Z,-0.60
2019-01-19T10:18:51.012Z,0.20
2019-01-19T10:21:24.306Z,2.70
2019-01-19T10:23:59.766Z,4.50
2019-01-19T10:26:32.988Z,5.80
2019-01-19T10:29:06.411Z,6.60
2019-01-19T10:33:25.602Z,7.40
2019-01-19T10:35:58.920Z,7.90
2019-01-19T10:38:32.175Z,8.00
2019-01-19T10:41:06.446Z,8.60
2019-01-19T10:43:39.674Z,8.90
2019-01-19T10:46:13.012Z,9.10
2019-01-19T10:48:46.315Z,9.40
2019-01-19T10:51:19.760Z,9.90
2019-01-19T10:53:53.065Z,10.00
2019-01-19T10:56:26.488Z,9.80
2019-01-19T10:58:59.728Z,9.40
2019-01-19T11:01:32.987Z,9.70
2019-01-19T11:04:06.208Z,10.40
2019-01-19T11:06:39.453Z,11.00
2019-01-19T11:09:12.682Z,11.40
2019-01-19T11:11:46.122Z,11.80
2019-01-19T11:14:19.480Z,12.10
2019-01-19T11:16:52.727Z,12.40
2019-01-19T11:19:26.026Z,12.80
2019-01-19T11:22:00.288Z,13.20
2019-01-19T11:24:33.507Z,13.50
2019-01-19T11:27:06.825Z,13.30
2019-01-19T11:29:40.087Z,13.90
2019-01-19T11:32:13.413Z,15.30
2019-01-19T11:34:46.809Z,14.60
2019-01-19T11:37:20.076Z,14.50
2019-01-19T11:39:53.358Z,13.90
2019-01-19T11:42:26.608Z,14.90
2019-01-19T11:44:59.825Z,14.80
2019-01-19T11:47:33.235Z,16.00
2019-01-19T11:50:08.675Z,19.70
2019-01-19T11:52:41.929Z,17.50
2019-01-19T11:55:19.191Z,16.60
2019-01-19T11:58:03.011Z,19.80
2019-01-19T12:00:38.071Z,22.50
2019-01-19T12:03:11.308Z,23.80
2019-01-19T12:05:44.699Z,24.10
2019-01-19T12:08:19.644Z,23.80
2019-01-19T12:10:52.979Z,23.30
2019-01-19T12:13:26.218Z,23.20
2019-01-19T12:15:59.440Z,22.80
2019-01-19T12:18:32.690Z,22.00
2019-01-19T12:21:06.387Z,20.70
2019-01-19T12:23:39.635Z,20.30
2019-01-19T12:26:12.879Z,20.40
2019-01-19T12:28:46.128Z,18.10
2019-01-19T12:31:19.361Z,17.10
2019-01-19T12:33:52.607Z,17.50
2019-01-19T12:36:26.063Z,17.80
2019-01-19T12:38:59.353Z,16.70
2019-01-19T12:41:32.588Z,15.50
2019-01-19T12:44:05.972Z,14.70
2019-01-19T12:46:39.208Z,13.60
2019-01-19T12:49:12.530Z,12.80
2019-01-19T12:51:45.756Z,13.40
2019-01-19T12:54:18.994Z,13.50
2019-01-19T12:56:52.333Z,12.70
2019-01-19T12:59:25.597Z,13.80
2019-01-19T13:01:58.920Z,15.40
2019-01-19T13:04:32.171Z,15.50
2019-01-19T13:07:05.607Z,14.20
2019-01-19T13:09:38.836Z,13.50
2019-01-19T13:12:18.203Z,13.50
2019-01-19T13:14:54.724Z,14.40
2019-01-19T13:17:43.068Z,14.10
2019-01-19T13:20:28.312Z,14.10
2019-01-19T13:23:16.687Z,13.20
2019-01-19T13:25:55.955Z,12.70
2019-01-19T13:28:32.458Z,12.70
2019-01-19T13:31:18.101Z,12.30
2019-01-19T13:34:16.165Z,12.40
2019-01-19T13:37:16.744Z,13.30
2019-01-19T13:39:59.441Z,14.70
2019-01-19T13:42:38.423Z,14.80
2019-01-19T13:45:40.404Z,14.20
2019-01-19T13:48:34.763Z,13.60
2019-01-19T13:51:20.066Z,14.10
2019-01-19T13:54:14.435Z,14.20
2019-01-19T13:56:59.483Z,13.90
2019-01-19T13:59:53.750Z,14.70
2019-01-19T14:02:49.158Z,15.70
2019-01-19T14:05:31.212Z,14.90
2019-01-19T14:08:19.605Z,15.70
2019-01-19T14:10:56.082Z,17.00
2019-01-19T14:13:50.589Z,16.30
2019-01-19T14:16:44.795Z,17.30
2019-01-19T14:19:32.911Z,17.40
2019-01-19T14:22:24.391Z,15.70
2019-01-19T14:25:12.905Z,13.60
2019-01-19T14:28:07.435Z,12.00
2019-01-19T14:31:00.016Z,11.20
2019-01-19T14:33:45.075Z,10.60
2019-01-19T14:37:50.612Z,9.90
2019-01-19T14:40:49.801Z,10.60
2019-01-19T14:43:35.442Z,12.50
2019-01-19T14:46:24.630Z,14.10
2019-01-19T14:49:17.656Z,13.80
2019-01-19T14:51:56.840Z,12.10
2019-01-19T14:54:35.965Z,10.90
2019-01-19T14:57:24.609Z,10.90
2019-01-19T15:00:33.885Z,10.70
2019-01-19T15:03:13.458Z,10.40
2019-01-19T15:06:10.616Z,9.50
2019-01-19T15:09:03.790Z,9.60
2019-01-19T15:12:10.299Z,9.40
2019-01-19T15:14:52.947Z,9.00
2019-01-19T15:17:44.550Z,8.40
2019-01-19T15:20:21.070Z,7.80
2019-01-19T15:22:57.587Z,7.70
2019-01-19T15:25:34.194Z,7.30
2019-01-19T15:28:27.011Z,7.70
2019-01-19T15:31:20.456Z,7.50
2019-01-19T15:34:06.217Z,6.70
2019-01-19T15:36:45.679Z,6.10
2019-01-19T15:39:28.026Z,5.60
2019-01-19T15:42:31.286Z,5.40
2019-01-19T15:45:16.227Z,5.00
2019-01-19T15:47:52.707Z,4.70
2019-01-19T15:50:37.989Z,4.50
2019-01-19T15:53:21.282Z,4.20
2019-01-19T15:56:09.567Z,3.90
2019-01-19T15:59:01.101Z,3.50
2019-01-19T16:01:40.596Z,3.20
2019-01-19T16:04:17.084Z,3.00
2019-01-19T16:07:16.415Z,2.70
2019-01-19T16:10:21.055Z,2.50
2019-01-19T16:13:06.882Z,2.20
2019-01-19T16:15:59.947Z,2.00
2019-01-19T16:18:53.195Z,1.80
2019-01-19T16:21:38.946Z,1.60
2019-01-19T16:24:18.319Z,1.50
2019-01-19T16:27:03.752Z,1.30
2019-01-19T16:29:46.088Z,1.10
2019-01-19T16:32:28.440Z,1.00
2019-01-19T16:35:04.929Z,0.90
2019-01-19T16:37:47.334Z,0.70
2019-01-19T16:40:43.299Z,0.60
2019-01-19T16:43:31.676Z,0.50
2019-01-19T16:46:23.142Z,0.50
2019-01-19T16:49:14.608Z,0.50
2019-01-19T16:52:10.735Z,0.60
2019-01-19T16:54:50.273Z,0.50
2019-01-19T16:57:29.937Z,0.60
2019-01-19T17:00:15.156Z,0.60
2019-01-19T17:02:54.296Z,0.60
2019-01-19T17:05:39.256Z,0.70
2019-01-19T17:08:18.459Z,0.70
2019-01-19T17:11:15.947Z,0.60
2019-01-19T17:14:01.258Z,0.60
2019-01-19T17:16:43.331Z,0.50
2019-01-19T17:19:25.373Z,0.50
2019-01-19T17:22:13.760Z,0.60
2019-01-19T17:24:50.243Z,0.40
2019-01-19T17:27:26.715Z,0.40
2019-01-19T17:30:03.196Z,0.30
2019-01-19T17:32:39.783Z,0.30
2019-01-19T17:35:34.707Z,0.20
2019-01-19T17:38:11.171Z,0.10
2019-01-19T17:41:05.527Z,0.10
2019-01-19T17:43:44.918Z,0.00
2019-01-19T17:46:46.539Z,-0.10
2019-01-19T17:49:37.248Z,-0.20
2019-01-19T17:52:37.574Z,-0.30
2019-01-19T17:55:23.099Z,-0.40
2019-01-19T17:58:11.262Z,-0.30
2019-01-19T18:00:47.775Z,-0.20
2019-01-19T18:03:43.670Z,-0.10
2019-01-19T18:06:25.874Z,-0.20
2019-01-19T18:09:15.277Z,-0.20
2019-01-19T18:12:18.916Z,-0.20
2019-01-19T18:15:21.027Z,-0.30
2019-01-19T18:18:23.197Z,-0.30
2019-01-19T18:21:05.233Z,-0.30
2019-01-19T18:23:57.972Z,-0.30
2019-01-19T18:26:40.283Z,-0.30
2019-01-19T18:29:45.032Z,-0.40
2019-01-19T18:32:38.052Z,-0.40
2019-01-19T18:35:17.427Z,-0.50
2019-01-19T18:38:05.666Z,-0.60
2019-01-19T18:40:58.604Z,-0.80
2019-01-19T18:43:54.787Z,-0.90
2019-01-19T18:46:50.493Z,-1.00
2019-01-19T18:49:44.878Z,-1.10
2019-01-19T18:52:46.874Z,-1.10
2019-01-19T18:55:37.951Z,-1.20
2019-01-19T18:58:17.264Z,-1.20
2019-01-19T19:01:02.686Z,-1.30
2019-01-19T19:03:55.542Z,-1.40
2019-01-19T19:07:06.586Z,-1.40
2019-01-19T19:10:02.226Z,-1.40
2019-01-19T19:12:48.035Z,-1.50
2019-01-19T19:15:45.449Z,-1.60
2019-01-19T19:18:53.221Z,-1.70
2019-01-19T19:21:48.951Z,-1.70
2019-01-19T19:24:28.099Z,-1.60
2019-01-19T19:27:10.388Z,-1.70
2019-01-19T19:30:06.173Z,-1.80
2019-01-19T19:32:45.664Z,-1.90
2019-01-19T19:35:25.059Z,-1.90
2019-01-19T19:38:04.645Z,-2.00
2019-01-19T19:40:49.678Z,-2.10
2019-01-19T19:43:31.800Z,-2.10
2019-01-19T19:46:20.028Z,-2.10
2019-01-19T19:48:59.380Z,-2.10
2019-01-19T19:51:54.556Z,-2.20
2019-01-19T19:54:27.876Z,-2.30
2019-01-19T19:57:01.122Z,-2.30
2019-01-19T19:59:34.379Z,-2.30
2019-01-19T20:02:07.674Z,-2.30
2019-01-19T20:04:41.122Z,-2.40
2019-01-19T20:07:14.467Z,-2.40
2019-01-19T20:09:47.753Z,-2.50
2019-01-19T20:12:20.991Z,-2.50
2019-01-19T20:14:54.267Z,-2.50
2019-01-19T20:17:27.653Z,-2.50
2019-01-19T20:20:00.896Z,-2.50
2019-01-19T20:22:34.125Z,-2.50
2019-01-19T20:25:07.822Z,-2.60
2019-01-19T20:27:41.142Z,-2.60
2019-01-19T20:30:16.411Z,-2.80
2019-01-19T20:32:50.496Z,-2.70
2019-01-19T20:35:23.857Z,-2.70
2019-01-19T20:37:57.123Z,-2.70
2019-01-19T20:40:30.582Z,-2.80
2019-01-19T20:43:03.808Z,-2.80
2019-01-19T20:45:37.070Z,-2.80
2019-01-19T20:48:11.713Z,-2.80
2019-01-19T20:50:44.988Z,-2.90
2019-01-19T20:53:18.366Z,-2.90
2019-01-19T20:55:51.760Z,-2.90
2019-01-19T20:58:25.043Z,-3.00
2019-01-19T21:00:58.304Z,-3.00
2019-01-19T21:03:31.530Z,-3.00
2019-01-19T21:06:04.833Z,-3.00
2019-01-19T21:08:38.229Z,-3.10
2019-01-19T21:11:12.277Z,-3.10
2019-01-19T21:13:45.540Z,-3.20
2019-01-19T21:16:19.128Z,-3.10
2019-01-19T21:18:52.348Z,-3.20
2019-01-19T21:21:25.607Z,-3.30
2019-01-19T21:23:58.897Z,-3.30
2019-01-19T21:26:32.145Z,-3.30
2019-01-19T21:29:05.379Z,-3.30
2019-01-19T21:31:38.675Z,-3.30
2019-01-19T21:34:11.917Z,-3.30
2019-01-19T21:36:45.175Z,-3.40
2019-01-19T21:39:18.380Z,-3.40
2019-01-19T21:41:51.706Z,-3.40
2019-01-19T21:44:24.927Z,-3.40
2019-01-19T21:46:58.180Z,-3.40
2019-01-19T21:49:31.399Z,-3.40
2019-01-19T21:52:04.908Z,-3.40
2019-01-19T21:54:38.128Z,-3.50
2019-01-19T21:57:11.359Z,-3.50
2019-01-19T21:59:44.627Z,-3.60
2019-01-19T22:02:17.870Z,-3.50
2019-01-19T22:04:51.103Z,-3.50
2019-01-19T22:07:25.265Z,-3.50
2019-01-19T22:09:58.495Z,-3.50
2019-01-19T22:12:31.740Z,-3.60
2019-01-19T22:15:08.216Z,-3.50
2019-01-19T22:17:41.602Z,-3.50
2019-01-19T22:20:16.575Z,-3.60
2019-01-19T22:22:49.850Z,-3.60
2019-01-19T22:25:23.071Z,-3.60
2019-01-19T22:27:56.380Z,-3.60
2019-01-19T22:30:29.672Z,-3.70
2019-01-19T22:33:03.098Z,-3.60
2019-01-19T22:35:36.411Z,-3.70
2019-01-19T22:38:09.647Z,-3.70
2019-01-19T22:40:42.879Z,-3.70
2019-01-19T22:43:16.296Z,-3.70
2019-01-19T22:45:49.519Z,-3.70
2019-01-19T22:48:22.777Z,-3.70
2019-01-19T22:50:55.995Z,-3.80
2019-01-19T22:53:29.235Z,-3.80
2019-01-19T22:56:02.465Z,-3.80
2019-01-19T22:58:35.725Z,-3.90
2019-01-19T23:01:14.712Z,-3.80
2019-01-19T23:03:48.092Z,-3.90
2019-01-19T23:06:21.361Z,-3.90
2019-01-19T23:08:54.607Z,-3.90
2019-01-19T23:11:33.767Z,-3.90
2019-01-19T23:14:04.112Z,-3.90
2019-01-19T23:16:37.331Z,-3.90
2019-01-19T23:19:10.756Z,-4.00
2019-01-19T23:21:44.029Z,-4.00
2019-01-19T23:24:17.380Z,-4.00
2019-01-19T23:26:51.374Z,-3.90
2019-01-19T23:29:24.587Z,-4.00
2019-01-19T23:31:57.828Z,-4.00
2019-01-19T23:34:31.085Z,-4.10
2019-01-19T23:37:04.593Z,-4.00
2019-01-19T23:39:37.861Z,-4.00
2019-01-19T23:42:11.211Z,-4.00
2019-01-19T23:44:44.534Z,-4.00
2019-01-19T23:47:19.872Z,-4.00
2019-01-19T23:49:53.386Z,-4.00
2019-01-19T23:52:26.856Z,-4.00
2019-01-19T23:55:00.183Z,-4.10
2019-01-19T23:57:33.476Z,-4.10
